Pagina principale
METAR-TAF:

METAR-TAF

Aeroporti :

Altenstadt, Germania

latitudine: 47-50N, longitudine: 010-52E, altezza: 739 m

Osservazione

Il bollettino è stato emesso 55 minuti fa, alle 11:20 UTC
Vento 2 kt da nord/nord-est
Temperature -4°C
Umidità 93%
Pressione 1017 hPa
Visibilità: 2500 m
Cielo coperto ad un'altezza di 400 ft
foschia

METAR: ETHA 211120Z 02002KT 2500 BR OVC004 M04/M05 Q1017 BLACKYLO YLO

Ora: 13:15 (12:15 UTC)

Previsione

Il bollettino è stato emesso 39 minuti fa, alle 11:36 UTC
Previsione valida dal 21 alle 12 UTC al 21 alle 21 UTC
Vento 3 kt da nord-est
Visibilità: 2000 m
Nuvoloso ad un'altezza di 400 ft
Nuvoloso ad un'altezza di 5000 ft
foschia
Evoluzione graduale
dal 21 alle 16 UTC al 21 alle 18 UTC
Vento 3 kt da nord/nord-est
Visibilità: 0500 m
ad un'altezza di 100 ft
Nubi sparse ad un'altezza di 5000 ft
nebbia che ghiaccia

TAF: ETHA 211136Z 2112/2121 05003KT 2000 BR BKN004 BKN050 BECMG 2116/2118 03003KT 0500 FZFG VV001 SCT050

Osservazioni e previsioni meteorologiche di più di 4000 aeroporti (messaggi METAR e TAF).

Le stazioni disponibili sono rappresentate dai dischi gialli e rossi sulla carta.

Puntare il mouse per vedere il nome della stazione.

Clicca sopra per visualizzare le osservazioni e previsioni meteorologiche.

Per cambiare la mappa : fare clic sui pulsanti verdi con una croce nera per ingrandire, il pulsante verde con un trattino per diminuire, o sulla freccia verde per le mappe adiacenti.


METAR-TAF: